Date,TemperatureHighF,TemperatureAvgF,TemperatureLowF,DewpointHighF,DewpointAvgF,DewpointLowF,HumidityHigh,HumidityAvg,HumidityLow,PressureMaxIn,PressureMinIn,WindSpeedMaxMPH,WindSpeedAvgMPH,GustSpeedMaxMPH,PrecipitationSumIn
2012-12-1,74.3,65.0,57.3,64.8,60.1,55.2,94,85,68,30.29,30.22,6,0,6,0.00
2012-12-2,79.3,68.4,59.2,67.6,62.6,57.0,94,83,59,30.31,30.21,5,0,5,0.04
2012-12-3,79.0,68.8,62.0,66.1,62.7,59.2,93,82,55,30.32,30.22,5,0,6,0.00
2012-12-4,76.9,65.5,57.3,62.0,58.6,55.0,94,80,52,30.33,30.22,5,0,5,0.00
2012-12-5,69.6,62.2,58.7,64.4,59.6,56.1,94,91,83,30.23,30.08,3,0,4,0.03
2012-12-6,79.5,67.9,59.7,66.5,62.2,57.6,94,83,58,30.09,29.96,5,0,5,0.00
2012-12-7,76.0,67.6,63.7,67.6,64.1,61.6,94,89,73,30.05,29.95,7,0,7,0.01
2012-12-8,79.9,69.3,62.8,69.9,65.4,60.9,94,88,70,30.09,29.99,0,0,0,0.00
2012-12-9,79.0,72.7,65.1,69.8,67.3,62.4,92,84,71,30.12,30.02,8,0,9,0.00
2012-12-10,80.0,71.7,62.4,74.4,68.1,60.0,95,89,77,30.04,29.83,10,0,11,0.06
2012-12-11,80.3,73.5,68.4,72.4,69.6,66.1,93,88,75,30.05,29.89,8,0,8,0.00
2012-12-12,78.8,71.6,64.3,72.9,68.4,61.9,94,90,81,30.10,30.01,9,0,10,0.38
2012-12-13,64.5,63.6,63.4,62.2,61.6,61.1,93,93,92,30.09,30.07,8,0,8,0.00
2012-12-14,69.2,62.3,57.3,62.7,59.0,0.0,94,89,77,30.26,30.08,10,0,10,0.00
2012-12-15,76.5,65.7,58.5,66.8,61.1,56.7,95,86,65,30.19,30.07,8,0,8,0.00
2012-12-16,79.2,68.0,59.3,68.3,63.1,57.2,94,85,64,30.10,29.97,5,0,5,0.00
2012-12-17,80.5,70.6,63.1,67.7,64.5,61.1,94,82,62,30.00,29.87,12,0,12,0.00
2012-12-18,79.8,70.8,57.3,70.2,61.9,50.4,93,75,40,30.05,29.88,17,1,17,0.00
2012-12-19,76.0,58.8,49.7,58.9,52.6,47.4,93,81,47,30.16,30.05,3,0,3,0.00
2012-12-20,79.3,68.1,56.8,69.1,61.4,54.7,94,80,58,30.13,29.93,10,0,10,0.36
2012-12-21,71.1,56.8,46.9,68.5,45.9,28.6,92,68,31,30.23,29.92,23,3,23,0.09
2012-12-22,61.4,47.8,39.8,39.8,32.5,28.1,82,56,31,30.33,30.21,13,1,13,0.00
2012-12-23,65.5,49.6,37.2,47.2,39.5,33.7,92,72,33,30.31,30.17,6,0,6,0.00
2012-12-24,70.2,59.5,50.0,57.1,52.1,45.7,91,77,60,30.18,30.00,12,0,12,0.00
2012-12-25,73.9,64.1,55.5,62.8,58.6,0.0,93,83,51,30.08,29.92,5,0,5,0.00
2012-12-26,77.5,65.1,54.6,69.1,60.5,49.9,91,85,67,30.00,29.77,21,2,21,0.39
2012-12-27,60.7,49.9,41.6,46.2,42.8,38.5,91,78,57,30.16,30.02,10,0,10,0.01
2012-12-28,69.5,52.8,41.3,55.3,46.5,39.4,95,81,56,30.17,30.00,3,0,3,0.00